createdAt,value
2022-11-03T00:00:12.405Z,33.3
2022-11-03T00:01:12.753Z,32.3
2022-11-03T00:02:17.425Z,31.5
2022-11-03T00:03:21.846Z,32.5
2022-11-03T00:04:26.137Z,31.2
2022-11-03T00:05:30.710Z,31.7
2022-11-03T00:06:40.229Z,31.2
2022-11-03T00:07:44.347Z,30.7
2022-11-03T00:08:49.069Z,30.9
2022-11-03T00:09:53.746Z,30.8
2022-11-03T00:10:58.223Z,31.4
2022-11-03T00:12:12.902Z,30.2
2022-11-03T00:13:17.423Z,29.2
2022-11-03T00:14:22.015Z,29.7
2022-11-03T00:15:26.106Z,30.3
2022-11-03T00:16:30.822Z,29.3
2022-11-03T00:17:35.422Z,30.8
2022-11-03T00:18:40.143Z,30.5
2022-11-03T00:19:44.835Z,31
2022-11-03T00:20:49.355Z,31.2
2022-11-03T00:21:56.094Z,31.8
2022-11-03T00:23:00.298Z,31.1
2022-11-03T00:24:04.870Z,31.7
2022-11-03T00:25:09.496Z,32.8
2022-11-03T00:26:14.095Z,33.4
2022-11-03T00:27:18.583Z,32.4
2022-11-03T00:28:23.103Z,34.4
2022-11-03T00:29:27.126Z,33.3
2022-11-03T00:30:31.323Z,35
2022-11-03T00:31:35.890Z,34.8
2022-11-03T00:32:40.471Z,35.6
2022-11-03T00:33:44.634Z,34.9
2022-11-03T00:34:49.187Z,35.7
2022-11-03T00:35:53.786Z,36.4
2022-11-03T00:36:58.586Z,35.3
2022-11-03T00:38:03.187Z,35
2022-11-03T00:39:07.518Z,34
2022-11-03T00:40:12.279Z,32.1
2022-11-03T00:41:16.728Z,31.2
2022-11-03T00:42:21.138Z,30.6
2022-11-03T00:43:25.434Z,29.3
2022-11-03T00:44:30.450Z,29.6
2022-11-03T00:45:35.366Z,29.8
2022-11-03T00:46:39.550Z,30.9
2022-11-03T00:47:43.742Z,28.5
2022-11-03T00:48:53.344Z,29.5
2022-11-03T00:49:57.962Z,29.1
2022-11-03T00:51:02.570Z,29.5
2022-11-03T00:52:09.634Z,33.6
2022-11-03T00:53:14.196Z,32.5
2022-11-03T00:54:18.857Z,32.4
2022-11-03T00:55:23.249Z,33.4
2022-11-03T00:56:27.398Z,31.7
2022-11-03T00:57:31.939Z,33.1
2022-11-03T00:58:35.994Z,34.1
2022-11-03T00:59:40.398Z,31.9
2022-11-03T01:00:44.845Z,31.3
2022-11-03T01:01:49.032Z,32
2022-11-03T01:02:53.623Z,31.1
2022-11-03T01:03:58.010Z,31.3
2022-11-03T01:05:07.750Z,30.6
2022-11-03T01:06:17.289Z,30.7
2022-11-03T01:07:26.983Z,31.8
2022-11-03T01:08:31.139Z,31.1
2022-11-03T01:09:35.887Z,31.4
2022-11-03T01:10:40.315Z,31.4
2022-11-03T01:11:50.014Z,31.3
2022-11-03T01:12:57.767Z,28.7
2022-11-03T01:14:02.870Z,29.1
2022-11-03T01:15:07.210Z,28.7
2022-11-03T01:16:11.239Z,30.1
2022-11-03T01:17:15.427Z,28.8
2022-11-03T01:18:20.177Z,27.9
2022-11-03T01:19:24.611Z,29.6
2022-11-03T01:20:29.079Z,26.9
2022-11-03T01:21:33.822Z,26.5
2022-11-03T01:22:38.216Z,27.6
2022-11-03T01:23:42.303Z,26
2022-11-03T01:24:46.665Z,25.2
2022-11-03T01:25:51.135Z,24.2
2022-11-03T01:26:55.643Z,25.4
2022-11-03T01:27:59.808Z,23.9
2022-11-03T01:29:03.832Z,24.5
2022-11-03T01:30:08.617Z,24.7
2022-11-03T01:31:13.046Z,25.1
2022-11-03T01:32:20.196Z,26
2022-11-03T01:33:24.737Z,25.3
2022-11-03T01:34:29.379Z,24.3
2022-11-03T01:35:33.870Z,25.5
2022-11-03T01:36:38.458Z,25.1
2022-11-03T01:37:42.495Z,24.8
2022-11-03T01:38:46.723Z,25.2
2022-11-03T01:39:51.258Z,23.7
2022-11-03T01:40:55.812Z,23.9
2022-11-03T01:42:00.154Z,23
2022-11-03T01:43:04.834Z,24
2022-11-03T01:44:19.206Z,24.3
2022-11-03T01:45:23.880Z,23.7
2022-11-03T01:46:28.678Z,23.4
2022-11-03T01:47:33.001Z,22.8
2022-11-03T01:48:37.506Z,24
2022-11-03T01:49:41.816Z,24.4
2022-11-03T01:50:51.508Z,26.7
2022-11-03T01:51:56.000Z,27.6
2022-11-03T01:53:05.869Z,26.8
2022-11-03T01:54:10.198Z,29.1
2022-11-03T01:55:14.853Z,25.8
2022-11-03T01:56:25.096Z,27.7
2022-11-03T01:57:29.659Z,25.9
2022-11-03T01:58:37.357Z,26.8
2022-11-03T01:59:41.843Z,28.5
2022-11-03T02:00:46.448Z,28.5
2022-11-03T02:01:51.060Z,26.9
2022-11-03T02:02:55.186Z,27.1
2022-11-03T02:03:59.599Z,26.3
2022-11-03T02:05:04.218Z,22.9
2022-11-03T02:06:08.924Z,23.7
2022-11-03T02:07:13.389Z,22.9
2022-11-03T02:08:18.005Z,23.3
2022-11-03T02:09:32.718Z,24.7
2022-11-03T02:10:37.173Z,23.6
2022-11-03T02:11:41.786Z,25.4
2022-11-03T02:12:51.102Z,24.1
2022-11-03T02:13:55.582Z,25.3
2022-11-03T02:14:59.778Z,23.5
2022-11-03T02:16:06.835Z,22.1
2022-11-03T02:17:11.390Z,24.2
2022-11-03T02:18:15.602Z,24
2022-11-03T02:19:20.565Z,21.8
2022-11-03T02:20:27.685Z,22
2022-11-03T02:21:31.787Z,21.2
2022-11-03T02:22:41.598Z,21.4
2022-11-03T02:23:53.830Z,20.3
2022-11-03T02:25:03.393Z,21.8
2022-11-03T02:26:18.227Z,21.3
2022-11-03T02:27:22.798Z,20.1
2022-11-03T02:28:27.452Z,21.7
2022-11-03T02:29:31.927Z,19.7
2022-11-03T02:30:36.490Z,18.8
2022-11-03T02:31:51.322Z,19.6
2022-11-03T02:33:00.961Z,18.9
2022-11-03T02:34:15.721Z,19.4
2022-11-03T02:35:27.869Z,20.8
2022-11-03T02:36:32.405Z,20.1
2022-11-03T02:37:44.655Z,19.2
2022-11-03T02:38:48.756Z,19.4
2022-11-03T02:39:53.393Z,19.3
2022-11-03T02:40:57.902Z,18.9
2022-11-03T02:42:01.984Z,19.2
2022-11-03T02:43:06.449Z,18.9
2022-11-03T02:44:10.642Z,18.4
2022-11-03T02:45:16.442Z,18
2022-11-03T02:46:19.274Z,19.9
2022-11-03T02:47:23.362Z,18.3
2022-11-03T02:48:27.486Z,19.2
2022-11-03T02:49:32.031Z,19.3
2022-11-03T02:50:39.754Z,19.4
2022-11-03T02:51:43.890Z,18
2022-11-03T02:52:48.529Z,18.4
2022-11-03T02:53:53.072Z,18.7
2022-11-03T02:55:03.357Z,18.6
2022-11-03T02:56:13.548Z,20.2
2022-11-03T02:57:18.105Z,19.2
2022-11-03T02:58:22.623Z,19.1
2022-11-03T02:59:37.459Z,20.1
2022-11-03T03:00:42.022Z,20.1
2022-11-03T03:01:54.279Z,18.9
2022-11-03T03:03:04.106Z,19.1
2022-11-03T03:04:16.434Z,20.6
2022-11-03T03:05:31.170Z,20.6
2022-11-03T03:06:36.294Z,19.5
2022-11-03T03:07:40.856Z,19.7
2022-11-03T03:08:44.921Z,19.1
2022-11-03T03:09:49.076Z,17.6
2022-11-03T03:10:58.675Z,18.4
2022-11-03T03:12:03.235Z,18.2
2022-11-03T03:13:08.190Z,18.8
2022-11-03T03:14:12.480Z,18.5
2022-11-03T03:15:17.034Z,18
2022-11-03T03:16:21.574Z,19.4
2022-11-03T03:17:26.093Z,20.9
2022-11-03T03:18:38.329Z,20.5
2022-11-03T03:19:43.305Z,19.6
2022-11-03T03:20:52.578Z,18.2
2022-11-03T03:22:00.298Z,18.3
2022-11-03T03:23:07.528Z,17.9
2022-11-03T03:24:14.363Z,19.3
2022-11-03T03:25:26.679Z,18.3
2022-11-03T03:26:34.301Z,19.9
2022-11-03T03:27:38.794Z,18.3
2022-11-03T03:28:42.870Z,18.3
2022-11-03T03:29:50.302Z,18.5
2022-11-03T03:30:57.522Z,18.7
2022-11-03T03:32:01.780Z,18.2
2022-11-03T03:33:06.623Z,18.9
2022-11-03T03:34:23.979Z,18.7
2022-11-03T03:35:15.462Z,16.7
2022-11-03T03:36:19.909Z,17.6
2022-11-03T03:37:24.265Z,17.7
2022-11-03T03:38:28.694Z,18
2022-11-03T03:39:33.270Z,16.8
2022-11-03T03:40:37.770Z,16.8
2022-11-03T03:41:41.974Z,17.9
2022-11-03T03:42:46.490Z,17.5
2022-11-03T03:43:50.517Z,16.2
2022-11-03T03:44:54.725Z,17.8
2022-11-03T03:45:59.236Z,16.8
2022-11-03T03:47:08.824Z,18.1
2022-11-03T03:48:15.910Z,17.4
2022-11-03T03:49:19.893Z,17.9
2022-11-03T03:50:24.294Z,17.8
2022-11-03T03:51:28.690Z,18.6
2022-11-03T03:52:33.234Z,16.8
2022-11-03T03:53:37.802Z,16.9
2022-11-03T03:54:42.332Z,16.5
2022-11-03T03:55:47.149Z,16.4
2022-11-03T03:56:51.623Z,17
2022-11-03T03:58:01.226Z,17.7
2022-11-03T03:59:05.313Z,17.8
2022-11-03T04:00:09.899Z,16.7
2022-11-03T04:01:14.595Z,16.6
2022-11-03T04:02:19.091Z,17.5
2022-11-03T04:03:23.058Z,16.3
2022-11-03T04:04:27.151Z,16.2
2022-11-03T04:05:31.725Z,17
2022-11-03T04:06:35.798Z,16.5
2022-11-03T04:07:40.859Z,15.6
2022-11-03T04:08:49.105Z,14.9
2022-11-03T04:09:53.901Z,15.7
2022-11-03T04:10:58.231Z,14.9
2022-11-03T04:12:07.949Z,15.8
2022-11-03T04:13:17.517Z,17
2022-11-03T04:14:27.116Z,15.2
2022-11-03T04:15:37.054Z,15.4
2022-11-03T04:16:46.548Z,15.4
2022-11-03T04:17:56.310Z,15.5
2022-11-03T04:19:05.890Z,16.9
2022-11-03T04:20:15.526Z,17.1
2022-11-03T04:21:25.178Z,16.2
2022-11-03T04:22:35.002Z,15.9
2022-11-03T04:23:39.505Z,16.2
2022-11-03T04:24:43.994Z,15.6
2022-11-03T04:25:48.214Z,16.6
2022-11-03T04:26:52.790Z,16.4
2022-11-03T04:28:00.021Z,15.6
2022-11-03T04:29:09.813Z,17
2022-11-03T04:30:14.049Z,15.5
2022-11-03T04:31:18.637Z,15.4
2022-11-03T04:32:22.897Z,16.1
2022-11-03T04:33:27.366Z,16.9
2022-11-03T04:34:31.978Z,16.2
2022-11-03T04:35:36.481Z,16
2022-11-03T04:36:41.021Z,16.6
2022-11-03T04:37:47.730Z,17.4
2022-11-03T04:38:50.180Z,18.5
2022-11-03T04:39:54.486Z,17
2022-11-03T04:40:58.940Z,17.1
2022-11-03T04:42:03.397Z,16.9
2022-11-03T04:43:15.610Z,17.6
2022-11-03T04:44:19.777Z,16.9
2022-11-03T04:45:24.387Z,17.3
2022-11-03T04:46:28.917Z,15.7
2022-11-03T04:47:32.978Z,16
2022-11-03T04:48:37.649Z,15.8
2022-11-03T04:49:42.345Z,15.9
2022-11-03T04:50:47.176Z,14.6
2022-11-03T04:51:51.413Z,15.1
2022-11-03T04:52:55.903Z,14.9
2022-11-03T04:54:00.005Z,15.3
2022-11-03T04:55:04.557Z,15.7
2022-11-03T04:56:09.669Z,15.7
2022-11-03T04:57:15.321Z,15.1
2022-11-03T04:58:19.736Z,15.4
2022-11-03T04:59:24.314Z,16.4
2022-11-03T05:00:28.356Z,16.1
2022-11-03T05:01:32.643Z,15.9
2022-11-03T05:02:36.670Z,15.2
2022-11-03T05:03:41.305Z,15.7
2022-11-03T05:04:45.770Z,16.6
2022-11-03T05:05:49.993Z,15.6
2022-11-03T05:06:54.445Z,15.6
2022-11-03T05:07:58.561Z,15.8
2022-11-03T05:09:02.994Z,15.2
2022-11-03T05:10:12.225Z,16.3
2022-11-03T05:11:16.786Z,14.9
2022-11-03T05:12:23.997Z,14.8
2022-11-03T05:13:28.637Z,15.2
2022-11-03T05:14:33.176Z,15.2
2022-11-03T05:15:37.827Z,14.8
2022-11-03T05:16:42.321Z,15.8
2022-11-03T05:17:46.913Z,14.5
2022-11-03T05:18:51.413Z,16.4
2022-11-03T05:19:55.393Z,14.9
2022-11-03T05:21:02.750Z,15.6
2022-11-03T05:22:07.177Z,15.4
2022-11-03T05:23:14.718Z,15.8
2022-11-03T05:24:19.393Z,15.6
2022-11-03T05:25:26.785Z,16.3
2022-11-03T05:26:36.282Z,16
2022-11-03T05:27:40.870Z,16.7
2022-11-03T05:28:46.142Z,15.8
2022-11-03T05:29:50.482Z,16.5
2022-11-03T05:30:55.124Z,15.7
2022-11-03T05:31:59.551Z,18.1
2022-11-03T05:33:04.109Z,15.6
2022-11-03T05:34:13.745Z,16.3
2022-11-03T05:35:23.441Z,15.3
2022-11-03T05:36:27.990Z,15.1
2022-11-03T05:37:32.561Z,15.7
2022-11-03T05:38:37.085Z,15
2022-11-03T05:39:41.086Z,15.4
2022-11-03T05:40:45.360Z,15.1
2022-11-03T05:41:52.453Z,15.1
2022-11-03T05:42:57.029Z,15
2022-11-03T05:44:01.732Z,16.1
2022-11-03T05:45:11.200Z,16.4
2022-11-03T05:46:20.874Z,17.2
2022-11-03T05:47:25.628Z,17.3
2022-11-03T05:48:35.264Z,16.3
2022-11-03T05:49:39.652Z,16.8
2022-11-03T05:50:43.958Z,16.2
2022-11-03T05:51:48.475Z,16.6
2022-11-03T05:52:53.199Z,17.4
2022-11-03T05:53:58.113Z,16.9
2022-11-03T05:55:03.191Z,18.4
2022-11-03T05:56:08.557Z,18.1
2022-11-03T05:57:13.413Z,18.2
2022-11-03T05:58:17.910Z,18.4
2022-11-03T05:59:27.604Z,19.7
2022-11-03T06:00:32.121Z,19.6
2022-11-03T06:01:39.098Z,19
2022-11-03T06:02:43.406Z,20.6
2022-11-03T06:03:47.484Z,19.7
2022-11-03T06:04:51.763Z,19.6
2022-11-03T06:05:56.101Z,19.9
2022-11-03T06:07:00.282Z,22
2022-11-03T06:08:07.621Z,20.4
2022-11-03T06:09:14.445Z,22.4
2022-11-03T06:10:22.078Z,23.5
2022-11-03T06:11:31.610Z,23.6
2022-11-03T06:12:35.685Z,24.3
2022-11-03T06:13:39.768Z,23.9
2022-11-03T06:14:43.945Z,22.9
2022-11-03T06:15:48.800Z,22.6
2022-11-03T06:16:58.492Z,22.2
2022-11-03T06:18:03.055Z,20.8
2022-11-03T06:19:12.705Z,19.4
2022-11-03T06:20:23.177Z,20.6
2022-11-03T06:21:27.689Z,20.4
2022-11-03T06:22:32.424Z,20.3
2022-11-03T06:23:37.049Z,19.1
2022-11-03T06:24:41.713Z,19.7
2022-11-03T06:25:46.073Z,18.4
2022-11-03T06:26:50.630Z,17.5
2022-11-03T06:27:55.325Z,17.1
2022-11-03T06:29:02.442Z,17.6
2022-11-03T06:30:07.196Z,16.9
2022-11-03T06:31:22.880Z,17.2
2022-11-03T06:32:28.914Z,17.5
2022-11-03T06:33:33.515Z,17.7
2022-11-03T06:34:38.156Z,18
2022-11-03T06:35:42.473Z,18.1
2022-11-03T06:36:46.747Z,18.9
2022-11-03T06:37:51.272Z,20.7
2022-11-03T06:38:55.670Z,20
2022-11-03T06:40:03.117Z,19.7
2022-11-03T06:41:10.601Z,19.7
2022-11-03T06:42:18.354Z,21.8
2022-11-03T06:43:23.085Z,21.3
2022-11-03T06:44:34.986Z,21.8
2022-11-03T06:45:39.488Z,21.5
2022-11-03T06:46:48.708Z,20.6
2022-11-03T06:47:57.260Z,21.1
2022-11-03T06:49:02.194Z,20.5
2022-11-03T06:50:06.635Z,21
2022-11-03T06:51:21.277Z,18.8
2022-11-03T06:52:25.829Z,18.9
2022-11-03T06:53:33.042Z,19.2
2022-11-03T06:54:37.590Z,20.8
2022-11-03T06:55:42.030Z,20.9
2022-11-03T06:56:46.371Z,21.3
2022-11-03T06:57:50.991Z,21.5
2022-11-03T06:58:55.628Z,20.1
2022-11-03T07:00:13.187Z,20.6
2022-11-03T07:01:14.939Z,19.9
2022-11-03T07:02:19.392Z,19.5
2022-11-03T07:03:26.566Z,17.8
2022-11-03T07:04:31.164Z,17.3
2022-11-03T07:05:35.594Z,18.1
2022-11-03T07:06:40.178Z,17.3
2022-11-03T07:07:44.337Z,17.4
2022-11-03T07:08:48.545Z,16.9
2022-11-03T07:09:58.812Z,15.9
2022-11-03T07:11:03.178Z,15.5
2022-11-03T07:12:07.362Z,16.4
2022-11-03T07:13:12.145Z,16.9
2022-11-03T07:14:16.564Z,16.3
2022-11-03T07:15:23.634Z,17.6
2022-11-03T07:16:33.894Z,19.7
2022-11-03T07:17:38.390Z,21.2
2022-11-03T07:18:42.932Z,23.8
2022-11-03T07:19:47.744Z,22.2
2022-11-03T07:20:52.138Z,21.7
2022-11-03T07:21:56.709Z,22
2022-11-03T07:23:06.466Z,22.4
2022-11-03T07:24:11.037Z,21.9
2022-11-03T07:25:23.142Z,21
2022-11-03T07:26:27.690Z,22.8
2022-11-03T07:27:31.889Z,22.3
2022-11-03T07:28:38.842Z,20.4
2022-11-03T07:29:43.581Z,20.4
2022-11-03T07:30:48.173Z,20
2022-11-03T07:31:52.973Z,20
2022-11-03T07:32:58.649Z,19.4
2022-11-03T07:34:03.010Z,18.6
2022-11-03T07:35:07.685Z,18.7
2022-11-03T07:36:17.459Z,17.3
2022-11-03T07:37:21.715Z,18.6
2022-11-03T07:38:26.178Z,17.2
2022-11-03T07:39:30.942Z,18.1
2022-11-03T07:40:35.500Z,16.2
2022-11-03T07:41:40.214Z,15.9
2022-11-03T07:42:44.642Z,16.7
2022-11-03T07:43:49.193Z,17.2
2022-11-03T07:44:56.270Z,14.4
2022-11-03T07:46:00.928Z,14.6
2022-11-03T07:47:05.371Z,14
2022-11-03T07:48:12.512Z,13.2
2022-11-03T07:49:22.122Z,12.6
2022-11-03T07:50:26.794Z,13
2022-11-03T07:51:30.916Z,13
2022-11-03T07:52:35.271Z,12.5
2022-11-03T07:53:39.597Z,11.8
2022-11-03T07:54:44.067Z,11.5
2022-11-03T07:55:48.835Z,11.7
2022-11-03T07:56:53.389Z,12.2
2022-11-03T07:57:58.020Z,13.7
2022-11-03T07:59:02.329Z,13.9
2022-11-03T08:00:10.155Z,13.2
2022-11-03T08:01:13.593Z,12.9
2022-11-03T08:02:25.893Z,14.4
2022-11-03T08:03:35.409Z,12.9
2022-11-03T08:04:45.573Z,11.6
2022-11-03T08:05:49.747Z,10.9
2022-11-03T08:06:54.398Z,10.1
2022-11-03T08:07:58.927Z,9.5
2022-11-03T08:09:03.477Z,10.7
2022-11-03T08:10:08.146Z,10.1
2022-11-03T08:12:16.666Z,10.7
2022-11-03T08:13:22.635Z,11
2022-11-03T08:14:27.234Z,10.6
2022-11-03T08:15:31.758Z,10.8
2022-11-03T08:16:35.862Z,9.2
2022-11-03T08:17:40.439Z,9.8
2022-11-03T08:18:45.037Z,10.2
2022-11-03T08:19:49.482Z,10
2022-11-03T08:20:53.905Z,10.4
2022-11-03T08:21:58.349Z,10.8
2022-11-03T08:23:24.376Z,10.6
2022-11-03T08:24:07.465Z,11.6
2022-11-03T08:25:12.046Z,10.7
2022-11-03T08:26:16.766Z,11.2
2022-11-03T08:27:21.257Z,11.4
2022-11-03T08:28:25.810Z,10.7
2022-11-03T08:29:30.321Z,11.4
2022-11-03T08:30:34.825Z,11.2
2022-11-03T08:31:39.198Z,10.4
2022-11-03T08:32:43.835Z,10.4
2022-11-03T08:33:48.391Z,11.1
2022-11-03T08:34:52.978Z,10.7
2022-11-03T08:35:57.483Z,10.3
2022-11-03T08:37:01.948Z,10.1
2022-11-03T08:38:06.841Z,10.5
2022-11-03T08:39:11.281Z,10
2022-11-03T08:40:15.669Z,10.7
2022-11-03T08:41:20.625Z,10.5
2022-11-03T08:42:24.849Z,10
2022-11-03T08:43:29.415Z,9.7
2022-11-03T08:44:33.881Z,9.5
2022-11-03T08:45:38.490Z,10.5
2022-11-03T08:46:43.187Z,9
2022-11-03T08:47:47.917Z,9.3
2022-11-03T08:48:52.493Z,10.4
2022-11-03T08:49:56.852Z,8.8
2022-11-03T08:51:01.356Z,8.9
2022-11-03T08:52:06.067Z,9.1
2022-11-03T08:53:10.784Z,9.8
2022-11-03T08:54:15.218Z,9.5
2022-11-03T08:55:19.695Z,9.3
2022-11-03T08:56:24.218Z,9.8
2022-11-03T08:57:28.327Z,10.1
2022-11-03T08:58:32.472Z,10.1
2022-11-03T08:59:37.084Z,9.8
2022-11-03T09:00:41.707Z,9.3
2022-11-03T09:01:46.324Z,9.1
2022-11-03T09:02:50.746Z,9.4
2022-11-03T09:03:55.223Z,9
2022-11-03T09:04:59.620Z,9.3
2022-11-03T09:06:04.066Z,9.3
2022-11-03T09:07:08.781Z,9.3
2022-11-03T09:10:23.515Z,9
2022-11-03T09:11:26.881Z,10.6
2022-11-03T09:12:31.581Z,10
2022-11-03T09:13:36.025Z,9.8
2022-11-03T09:14:40.633Z,9.7
2022-11-03T09:15:45.327Z,10
2022-11-03T09:16:49.958Z,10.7
2022-11-03T09:17:54.371Z,10.1
2022-11-03T09:18:58.912Z,9.9
2022-11-03T09:20:02.933Z,10.4
2022-11-03T09:21:07.637Z,9.4
2022-11-03T09:22:12.317Z,8.6
2022-11-03T09:23:16.853Z,8.3
2022-11-03T09:24:21.496Z,7.4
2022-11-03T09:25:25.934Z,6.6
2022-11-03T09:26:30.480Z,6.8
2022-11-03T09:27:34.765Z,6.3
2022-11-03T09:28:39.241Z,6.5
2022-11-03T09:30:06.958Z,6.5
2022-11-03T09:30:48.474Z,7.7
2022-11-03T09:31:53.126Z,6.7
2022-11-03T09:32:57.830Z,6.8
2022-11-03T09:34:02.522Z,6.9
2022-11-03T09:35:07.337Z,6.1
2022-11-03T09:36:11.828Z,6.8
2022-11-03T09:37:16.013Z,7.4
2022-11-03T09:38:20.708Z,7.7
2022-11-03T09:39:24.985Z,7.9
2022-11-03T09:40:29.179Z,7.5
2022-11-03T09:41:55.657Z,8.1
2022-11-03T09:42:38.446Z,7.9
2022-11-03T09:43:43.084Z,8.3
2022-11-03T09:44:47.681Z,8.1
2022-11-03T09:45:52.239Z,8.3
2022-11-03T09:46:58.518Z,8.1
2022-11-03T09:48:01.357Z,7.8
2022-11-03T09:49:05.913Z,6.9
2022-11-03T09:50:10.084Z,7.1
2022-11-03T09:51:14.781Z,6.6
2022-11-03T09:52:19.317Z,6.4
2022-11-03T09:53:23.736Z,6.1
2022-11-03T09:54:27.980Z,6.4
2022-11-03T09:55:32.501Z,5.9
2022-11-03T09:56:37.342Z,5.5
2022-11-03T09:57:41.502Z,5.7
2022-11-03T09:58:48.631Z,6.8
2022-11-03T09:59:50.509Z,6.5
2022-11-03T10:00:55.822Z,6.5
2022-11-03T10:02:00.193Z,6.2
2022-11-03T10:03:05.485Z,6.2
2022-11-03T10:04:12.330Z,6.2
2022-11-03T10:05:22.197Z,6.1
2022-11-03T10:06:26.540Z,6.2
2022-11-03T10:07:30.959Z,6.7
2022-11-03T10:08:35.603Z,6.3
2022-11-03T10:09:40.109Z,6.9
2022-11-03T10:10:44.229Z,6.6
2022-11-03T10:11:48.609Z,6.1
2022-11-03T10:12:52.986Z,6.3
2022-11-03T10:13:57.105Z,6.1
2022-11-03T10:15:01.787Z,5.8
2022-11-03T10:16:06.213Z,5.7
2022-11-03T10:17:10.840Z,4.9
2022-11-03T10:18:15.337Z,5.2
2022-11-03T10:19:19.538Z,5.3
2022-11-03T10:20:24.395Z,5.2
2022-11-03T10:21:28.758Z,5.5
2022-11-03T10:22:35.956Z,5.3
2022-11-03T10:23:37.857Z,5.8
2022-11-03T10:24:42.483Z,4.9
2022-11-03T10:25:47.084Z,5.2
2022-11-03T10:26:51.702Z,4.9
2022-11-03T10:27:56.331Z,4.7
2022-11-03T10:29:11.153Z,4.5
2022-11-03T10:30:25.645Z,4.4
2022-11-03T10:31:29.773Z,4.2
2022-11-03T10:32:37.061Z,4.3
2022-11-03T10:33:41.762Z,4.4
2022-11-03T10:34:53.910Z,3.8
2022-11-03T10:35:58.414Z,3.9
2022-11-03T10:37:06.194Z,4.1
2022-11-03T10:38:15.706Z,3.8
2022-11-03T10:39:27.886Z,4.2
2022-11-03T10:40:47.112Z,4.2
2022-11-03T10:41:36.941Z,4.5
2022-11-03T10:42:41.013Z,3.9
2022-11-03T10:43:45.169Z,4.1
2022-11-03T10:45:00.080Z,4
2022-11-03T10:46:23.348Z,3.6
2022-11-03T10:47:16.874Z,3.8
2022-11-03T10:48:26.413Z,3.4
2022-11-03T10:49:30.491Z,3
2022-11-03T10:50:34.510Z,3
2022-11-03T10:51:38.681Z,3.6
2022-11-03T10:52:42.885Z,4
2022-11-03T10:53:47.463Z,3.6
2022-11-03T10:54:52.036Z,4.1
2022-11-03T10:55:56.665Z,4.1
2022-11-03T10:57:01.323Z,3.3
2022-11-03T10:58:05.964Z,3.6
2022-11-03T10:59:10.515Z,2.8
2022-11-03T11:00:20.020Z,2.8
2022-11-03T11:01:24.886Z,2.5
2022-11-03T11:02:29.288Z,2.2
2022-11-03T11:03:33.769Z,2.5
2022-11-03T11:04:38.051Z,2.7
2022-11-03T11:05:42.393Z,3.1
2022-11-03T11:06:46.744Z,3.1
2022-11-03T11:07:51.349Z,3.4
2022-11-03T11:08:59.730Z,3.5
2022-11-03T11:10:03.417Z,3.3
2022-11-03T11:11:16.094Z,3.2
2022-11-03T11:12:20.236Z,3.3
2022-11-03T11:13:24.886Z,3.5
2022-11-03T11:14:29.666Z,3.7
2022-11-03T11:15:36.876Z,3.5
2022-11-03T11:16:44.177Z,3.6
2022-11-03T11:17:56.497Z,3.3
2022-11-03T11:19:01.195Z,3.2
2022-11-03T11:20:05.496Z,3.2
2022-11-03T11:21:20.325Z,3
2022-11-03T11:22:27.752Z,3
2022-11-03T11:23:32.098Z,3
2022-11-03T11:24:36.514Z,3.4
2022-11-03T11:25:43.697Z,3.4
2022-11-03T11:26:58.404Z,3.4
2022-11-03T11:28:02.585Z,3.3
2022-11-03T11:29:12.099Z,3.5
2022-11-03T11:30:16.693Z,3.4
2022-11-03T11:31:21.016Z,3.3
2022-11-03T11:32:28.452Z,3.6
2022-11-03T11:33:40.638Z,3.5
2022-11-03T11:34:44.773Z,3.1
2022-11-03T11:35:49.769Z,3.5
2022-11-03T11:36:54.107Z,2.9
2022-11-03T11:37:58.465Z,3.6
2022-11-03T11:39:13.337Z,3.2
2022-11-03T11:40:20.893Z,3.8
2022-11-03T11:41:25.513Z,3.7
2022-11-03T11:42:40.433Z,3.3
2022-11-03T11:43:55.201Z,3.7
2022-11-03T11:44:59.566Z,4.4
2022-11-03T11:46:04.126Z,3.9
2022-11-03T11:47:13.889Z,4.1
2022-11-03T11:48:23.577Z,4.2
2022-11-03T11:49:28.177Z,4.4
2022-11-03T11:50:32.669Z,4.3
2022-11-03T11:51:36.871Z,4.1
2022-11-03T11:52:41.629Z,3.8
2022-11-03T11:53:48.152Z,3.5
2022-11-03T11:54:50.169Z,3.8
2022-11-03T11:55:54.783Z,4.1
2022-11-03T11:56:59.333Z,4.1
2022-11-03T11:58:03.810Z,4.4
2022-11-03T11:59:13.554Z,4.5
2022-11-03T12:00:23.609Z,4.4
2022-11-03T12:01:27.813Z,4.8
2022-11-03T12:02:34.893Z,4.6
2022-11-03T12:03:39.490Z,4.7
2022-11-03T12:04:47.950Z,4.8
2022-11-03T12:05:53.716Z,4.3
2022-11-03T12:06:58.260Z,4.5
2022-11-03T12:08:02.985Z,4
2022-11-03T12:09:17.732Z,4
2022-11-03T12:10:22.352Z,4
2022-11-03T12:11:32.591Z,3.8
2022-11-03T12:12:44.784Z,4.2
2022-11-03T12:13:49.369Z,4.2
2022-11-03T12:14:53.813Z,4
2022-11-03T12:15:57.923Z,4.3
2022-11-03T12:17:02.661Z,4.7
2022-11-03T12:18:14.836Z,4.2
2022-11-03T12:19:29.537Z,4.6
2022-11-03T12:20:41.720Z,4.4
2022-11-03T12:21:48.876Z,4.4
2022-11-03T12:22:54.149Z,4.3
2022-11-03T12:23:58.556Z,4
2022-11-03T12:25:03.157Z,4.1
2022-11-03T12:26:07.840Z,4.1
2022-11-03T12:27:17.422Z,4
2022-11-03T12:28:25.025Z,4.4
2022-11-03T12:29:35.757Z,4.1
2022-11-03T12:30:40.508Z,4.3
2022-11-03T12:31:44.943Z,4.7
2022-11-03T12:32:49.496Z,4.1
2022-11-03T12:33:54.217Z,4.3
2022-11-03T12:34:58.685Z,4
2022-11-03T12:36:03.443Z,4.3
2022-11-03T12:37:08.300Z,4.6
2022-11-03T12:38:12.891Z,4.6
2022-11-03T12:39:17.472Z,4.2
2022-11-03T12:40:22.033Z,3.8
2022-11-03T12:41:26.829Z,3.9
2022-11-03T12:42:31.400Z,4
2022-11-03T12:43:35.889Z,3.9
2022-11-03T12:44:43.720Z,4.2
2022-11-03T12:45:49.956Z,4.4
2022-11-03T12:46:54.272Z,4
2022-11-03T12:47:59.004Z,4.2
2022-11-03T12:49:03.644Z,3.9
2022-11-03T12:50:08.024Z,4.1
2022-11-03T12:51:12.749Z,4.2
2022-11-03T12:52:17.124Z,4
2022-11-03T12:53:23.052Z,4.5
2022-11-03T12:54:27.543Z,4.5
2022-11-03T12:55:32.008Z,4.6
2022-11-03T12:56:36.596Z,4.4
2022-11-03T12:57:41.056Z,5
2022-11-03T12:58:45.274Z,4.5
2022-11-03T12:59:49.931Z,5.1
2022-11-03T13:00:55.088Z,5.1
2022-11-03T13:01:59.513Z,5.1
2022-11-03T13:03:03.785Z,4.1
2022-11-03T13:04:08.284Z,4.4
2022-11-03T13:05:12.897Z,4.1
2022-11-03T13:06:17.291Z,4.6
2022-11-03T13:07:26.749Z,4.6
2022-11-03T13:08:26.209Z,4.4
2022-11-03T13:09:33.265Z,4.8
2022-11-03T13:10:37.945Z,4.9
2022-11-03T13:11:42.385Z,4.6
2022-11-03T13:12:52.343Z,4.8
2022-11-03T13:13:56.641Z,4.6
2022-11-03T13:15:01.080Z,4.5
2022-11-03T13:16:05.965Z,4.8
2022-11-03T13:17:10.369Z,5
2022-11-03T13:18:14.755Z,4.5
2022-11-03T13:19:19.158Z,4.6
2022-11-03T13:20:23.780Z,5
2022-11-03T13:21:28.466Z,4.8
2022-11-03T13:22:33.072Z,5
2022-11-03T13:23:37.504Z,4.6
2022-11-03T13:24:41.838Z,4.8
2022-11-03T13:25:46.351Z,5.1
2022-11-03T13:26:50.834Z,4.6
2022-11-03T13:27:55.520Z,5
2022-11-03T13:29:00.093Z,4.9
2022-11-03T13:30:04.608Z,4.8
2022-11-03T13:31:09.391Z,5
2022-11-03T13:32:13.857Z,5
2022-11-03T13:33:18.427Z,4.7
2022-11-03T13:34:22.876Z,5
2022-11-03T13:35:27.425Z,5.1
2022-11-03T13:36:31.790Z,5
2022-11-03T13:37:36.177Z,5
2022-11-03T13:38:41.157Z,4.9
2022-11-03T13:39:45.786Z,4.7
2022-11-03T13:40:56.537Z,5
2022-11-03T13:41:54.618Z,4.9
2022-11-03T13:42:59.196Z,5.1
2022-11-03T13:44:03.919Z,5.6
2022-11-03T13:45:08.378Z,5.6
2022-11-03T13:46:13.065Z,4.9
2022-11-03T13:47:17.573Z,5.5
2022-11-03T13:50:31.453Z,5.2
2022-11-03T13:51:35.916Z,5.4
2022-11-03T13:52:40.604Z,5.1
2022-11-03T13:55:54.297Z,5.4
2022-11-03T14:00:12.104Z,4.8
2022-11-03T14:01:16.827Z,5.1
2022-11-03T14:04:45.697Z,5.4
2022-11-03T14:05:34.740Z,4.8
2022-11-03T14:06:39.000Z,5.2
2022-11-03T14:07:43.420Z,5.5
2022-11-03T14:08:47.632Z,5.5
2022-11-03T14:09:51.893Z,5.7
2022-11-03T14:10:56.372Z,5.1
2022-11-03T14:12:00.899Z,5.2
2022-11-03T14:13:10.735Z,5
2022-11-03T14:14:15.285Z,5.2
2022-11-03T14:15:20.023Z,5.5
2022-11-03T14:16:24.340Z,5.5
2022-11-03T14:17:28.892Z,5.7
2022-11-03T14:18:33.608Z,5.6
2022-11-03T14:19:43.067Z,5.7
2022-11-03T14:20:42.712Z,5.6
2022-11-03T14:21:47.217Z,5.7
2022-11-03T14:22:51.881Z,5.8
2022-11-03T14:23:56.766Z,5.7
2022-11-03T14:25:01.134Z,5.6
2022-11-03T14:26:13.006Z,5.5
2022-11-03T14:27:10.201Z,5.8
2022-11-03T14:28:20.680Z,6.8
2022-11-03T14:29:19.370Z,6.1
2022-11-03T14:30:23.896Z,6.1
2022-11-03T14:31:27.973Z,6.3
2022-11-03T14:32:32.632Z,7
2022-11-03T14:33:37.330Z,9.2
2022-11-03T14:34:41.918Z,9.5
2022-11-03T14:35:46.402Z,9
2022-11-03T14:36:51.172Z,9
2022-11-03T14:37:55.657Z,11.5
2022-11-03T14:39:00.172Z,11.9
2022-11-03T14:40:05.040Z,11.3
2022-11-03T14:41:09.266Z,12.7
2022-11-03T14:42:16.667Z,13.2
2022-11-03T14:43:21.077Z,12.5
2022-11-03T14:44:26.165Z,11.4
2022-11-03T14:45:34.875Z,11.2
2022-11-03T14:46:37.355Z,11.3
2022-11-03T14:47:41.861Z,11.7
2022-11-03T14:48:46.049Z,11.4
2022-11-03T14:49:50.757Z,11.8
2022-11-03T14:50:55.478Z,11.4
2022-11-03T14:51:59.850Z,11.2
2022-11-03T14:53:04.413Z,10.8
2022-11-03T14:54:08.933Z,10.4
2022-11-03T14:55:13.513Z,9.9
2022-11-03T14:56:18.205Z,10.2
2022-11-03T14:57:22.804Z,9.8
2022-11-03T14:58:27.433Z,9.4
2022-11-03T14:59:31.828Z,9
2022-11-03T15:00:36.449Z,10.3
2022-11-03T15:01:41.355Z,9.9
2022-11-03T15:02:45.596Z,10.1